Time;durP1;ratioP1;P1;durP2;ratioP2;P2;SDS_P1;SDS_P2;PMS_P1;PMS_P2;Temp;Humidity;BMP_temperature;BMP_pressure;BME280_temperature;BME280_humidity;BME280_pressure;Samples;Min_cycle;Max_cycle;Signal;HPM_P1;HPM_P2
2022/04/19 00:01:15;;;;;;;;;;;8.80;99.90;;;;;;5094034;28;20324;-61
2022/04/19 00:03:41;;;;;;;;;;;8.80;99.90;;;;;;5092072;28;20039;-61
2022/04/19 00:06:07;;;;;;;;;;;8.90;99.90;;;;;;5093971;28;20410;-61
2022/04/19 00:08:32;;;;;;;;;;;8.90;99.90;;;;;;5089468;28;19982;-61
2022/04/19 00:10:59;;;;;;;;;;;8.90;99.90;;;;;;5054244;28;19967;-61
2022/04/19 00:13:25;;;;;;;;;;;8.90;99.90;;;;;;5075986;28;19975;-61
2022/04/19 00:15:50;;;;;;;;;;;8.90;99.90;;;;;;5086668;28;19978;-61
2022/04/19 00:18:16;;;;;;;;;;;8.90;99.90;;;;;;5054445;28;19924;-61
2022/04/19 00:20:43;;;;;;;;;;;8.90;99.90;;;;;;5072451;28;19931;-61
2022/04/19 00:23:13;;;;;;;;;;;8.90;99.90;;;;;;5064608;28;20347;-61
2022/04/19 00:25:39;;;;;;;;;;;8.90;99.90;;;;;;5035677;28;20017;-61
2022/04/19 00:28:05;;;;;;;;;;;8.80;99.90;;;;;;5053059;28;19929;-61
2022/04/19 00:30:31;;;;;;;;;;;8.80;99.90;;;;;;5057676;28;20055;-61
2022/04/19 00:32:57;;;;;;;;;;;8.80;99.90;;;;;;5055177;28;19932;-61
2022/04/19 00:35:24;;;;;;;;;;;8.80;99.90;;;;;;5054864;28;19928;-61
2022/04/19 00:37:50;;;;;;;;;;;8.90;99.90;;;;;;5054362;28;20410;-61
2022/04/19 00:40:16;;;;;;;;;;;8.80;99.90;;;;;;5064710;28;19982;-61
2022/04/19 00:42:42;;;;;;;;;;;8.80;99.90;;;;;;5093082;28;19979;-61
2022/04/19 00:45:07;;;;;;;;;;;8.70;99.90;;;;;;5092366;28;19920;-61
2022/04/19 00:47:33;;;;;;;;;;;8.70;99.90;;;;;;5075158;28;20435;-61
2022/04/19 00:50:03;;;;;;;;;;;8.60;99.90;;;;;;5067863;28;19925;-61
2022/04/19 00:52:32;;;;;;;;;;;8.50;99.90;;;;;;5034556;28;19986;-61
2022/04/19 00:54:59;;;;;;;;;;;8.40;99.90;;;;;;5035130;28;20785;-61
2022/04/19 00:57:26;;;;;;;;;;;8.20;99.90;;;;;;5070509;28;19931;-61
2022/04/19 00:59:54;;;;;;;;;;;8.10;99.90;;;;;;5054560;28;19924;-61
2022/04/19 01:02:20;;;;;;;;;;;8.10;99.90;;;;;;5038177;28;19929;-61
2022/04/19 01:04:47;;;;;;;;;;;8.10;99.90;;;;;;5054386;28;19931;-61
2022/04/19 01:07:12;;;;;;;;;;;8.10;99.90;;;;;;5037469;28;19978;-61
2022/04/19 01:09:40;;;;;;;;;;;8.10;99.90;;;;;;5037968;28;19969;-61
2022/04/19 01:14:50;;;;;;;;;;;8.10;99.90;;;;;;5054332;28;20347;-61
2022/04/19 01:17:16;;;;;;;;;;;8.00;99.90;;;;;;5035782;28;19925;-61
2022/04/19 01:19:46;;;;;;;;;;;8.00;99.90;;;;;;5033787;28;19924;-61
2022/04/19 01:22:16;;;;;;;;;;;8.00;99.90;;;;;;5054667;28;20048;-60
2022/04/19 01:24:45;;;;;;;;;;;8.00;99.90;;;;;;5054598;28;19924;-61
2022/04/19 01:27:13;;;;;;;;;;;7.90;99.90;;;;;;5053413;28;20439;-61
2022/04/19 01:29:42;;;;;;;;;;;8.00;99.90;;;;;;5054803;28;20386;-61
2022/04/19 01:32:09;;;;;;;;;;;7.90;99.90;;;;;;5054390;28;19932;-61
2022/04/19 01:34:35;;;;;;;;;;;8.00;99.90;;;;;;5074058;28;19978;-61
2022/04/19 01:37:05;;;;;;;;;;;7.80;99.90;;;;;;5074626;28;20407;-61
2022/04/19 01:42:16;;;;;;;;;;;7.80;99.90;;;;;;5075231;28;19947;-60
2022/04/19 01:44:48;;;;;;;;;;;7.70;99.90;;;;;;5058207;28;19931;-61
2022/04/19 01:47:14;;;;;;;;;;;7.50;99.90;;;;;;5075661;28;19977;-61
2022/04/19 01:49:45;;;;;;;;;;;7.50;99.90;;;;;;5074036;28;20337;-61
2022/04/19 01:52:11;;;;;;;;;;;7.30;99.90;;;;;;5074717;28;19924;-61
2022/04/19 01:54:38;;;;;;;;;;;7.30;99.90;;;;;;5073218;28;19927;-61
2022/04/19 01:57:05;;;;;;;;;;;7.20;99.90;;;;;;5057766;28;19924;-61
2022/04/19 01:59:44;;;;;;;;;;;7.20;99.90;;;;;;5066092;28;20015;-60
2022/04/19 02:02:14;;;;;;;;;;;7.20;99.90;;;;;;5073603;28;19928;-60
2022/04/19 02:04:40;;;;;;;;;;;7.20;99.90;;;;;;5074508;28;19971;-61
2022/04/19 02:07:05;;;;;;;;;;;7.20;99.90;;;;;;5075926;28;19932;-61
2022/04/19 02:09:32;;;;;;;;;;;7.30;99.90;;;;;;5056044;28;20438;-61
2022/04/19 02:11:59;;;;;;;;;;;7.30;99.90;;;;;;5040876;28;20019;-61
2022/04/19 02:14:46;;;;;;;;;;;7.20;99.90;;;;;;5057760;28;19925;-61
2022/04/19 02:17:17;;;;;;;;;;;7.10;99.90;;;;;;5063631;28;19931;-61
2022/04/19 02:19:43;;;;;;;;;;;7.10;99.90;;;;;;5077444;28;20378;-60
2022/04/19 02:22:09;;;;;;;;;;;7.00;99.90;;;;;;5087531;28;19939;-60
2022/04/19 02:24:36;;;;;;;;;;;6.90;99.90;;;;;;5070805;28;19954;-60
2022/04/19 02:27:02;;;;;;;;;;;6.90;99.90;;;;;;5057150;28;19947;-60
2022/04/19 02:29:28;;;;;;;;;;;6.80;99.90;;;;;;5057258;28;19955;-61
2022/04/19 02:31:55;;;;;;;;;;;6.70;99.90;;;;;;5056298;28;19929;-60
2022/04/19 02:34:21;;;;;;;;;;;6.70;99.90;;;;;;5079844;28;20400;-60
2022/04/19 02:36:47;;;;;;;;;;;6.70;99.90;;;;;;5076521;28;19931;-60
2022/04/19 02:39:13;;;;;;;;;;;6.70;99.90;;;;;;5065955;28;19929;-61
2022/04/19 02:41:39;;;;;;;;;;;6.70;99.90;;;;;;5037462;28;20282;-60
2022/04/19 02:44:07;;;;;;;;;;;6.60;99.90;;;;;;5048973;28;19932;-60
2022/04/19 02:46:35;;;;;;;;;;;6.50;99.90;;;;;;5056387;28;19927;-60
2022/04/19 02:49:04;;;;;;;;;;;6.40;99.90;;;;;;5040435;28;20313;-60
2022/04/19 02:51:32;;;;;;;;;;;6.40;99.90;;;;;;5056127;28;20391;-60
2022/04/19 02:53:57;;;;;;;;;;;6.40;99.90;;;;;;5076429;28;19931;-60
2022/04/19 02:56:25;;;;;;;;;;;6.40;99.90;;;;;;5077256;28;20302;-60
2022/04/19 02:58:52;;;;;;;;;;;6.50;99.90;;;;;;5076070;28;19924;-60
2022/04/19 03:01:19;;;;;;;;;;;6.40;99.90;;;;;;5058682;28;19931;-60
2022/04/19 03:03:46;;;;;;;;;;;6.30;99.90;;;;;;5076811;28;20421;-60
2022/04/19 03:06:15;;;;;;;;;;;6.20;99.90;;;;;;5042907;28;20347;-60
2022/04/19 03:08:41;;;;;;;;;;;6.30;99.90;;;;;;5053616;28;20007;-60
2022/04/19 03:11:07;;;;;;;;;;;5.90;99.90;;;;;;5096889;28;19924;-60
2022/04/19 03:13:33;;;;;;;;;;;5.80;99.90;;;;;;5079160;28;19931;-60
2022/04/19 03:16:00;;;;;;;;;;;5.70;99.90;;;;;;5067685;28;19940;-60
2022/04/19 03:18:27;;;;;;;;;;;5.70;99.90;;;;;;5060372;28;19924;-60
2022/04/19 03:20:52;;;;;;;;;;;5.70;99.90;;;;;;5075872;28;20446;-60
2022/04/19 03:28:54;;;;;;;;;;;5.50;99.90;;;;;;5073233;28;20294;-60
2022/04/19 03:31:22;;;;;;;;;;;5.30;99.90;;;;;;5076061;28;19928;-60
2022/04/19 03:33:51;;;;;;;;;;;5.30;99.90;;;;;;5075848;28;19968;-60
2022/04/19 03:36:20;;;;;;;;;;;5.30;99.90;;;;;;5064389;28;20002;-60
2022/04/19 03:38:46;;;;;;;;;;;5.40;99.90;;;;;;5095910;28;19924;-60
2022/04/19 03:41:12;;;;;;;;;;;5.50;99.90;;;;;;5095882;28;20408;-60
2022/04/19 03:43:38;;;;;;;;;;;5.40;99.90;;;;;;5096637;28;20387;-60
2022/04/19 03:46:04;;;;;;;;;;;5.60;99.90;;;;;;5082512;28;19924;-60
2022/04/19 03:48:32;;;;;;;;;;;5.50;99.90;;;;;;5075552;28;19924;-60
2022/04/19 03:50:58;;;;;;;;;;;5.40;99.90;;;;;;5093911;28;20510;-60
2022/04/19 03:53:23;;;;;;;;;;;5.50;99.90;;;;;;5075261;28;19945;-60
2022/04/19 03:55:49;;;;;;;;;;;5.80;99.90;;;;;;5038210;28;19928;-60
2022/04/19 03:58:15;;;;;;;;;;;5.50;99.90;;;;;;5038919;28;19928;-60
2022/04/19 04:00:41;;;;;;;;;;;5.30;99.90;;;;;;5055461;28;19936;-60
2022/04/19 04:03:06;;;;;;;;;;;5.40;99.90;;;;;;5053304;28;20263;-60
2022/04/19 04:05:32;;;;;;;;;;;5.30;99.90;;;;;;5114046;28;19924;-59
2022/04/19 04:07:58;;;;;;;;;;;5.30;99.90;;;;;;5095564;28;19947;-60
2022/04/19 04:10:26;;;;;;;;;;;5.20;99.90;;;;;;5074951;28;19920;-60
2022/04/19 04:12:51;;;;;;;;;;;5.40;99.90;;;;;;5108744;28;19924;-60
2022/04/19 04:15:17;;;;;;;;;;;5.40;99.90;;;;;;5092368;28;19928;-60
2022/04/19 04:17:43;;;;;;;;;;;5.40;99.90;;;;;;5075011;28;19928;-60
2022/04/19 04:20:09;;;;;;;;;;;5.50;99.90;;;;;;5060752;28;19941;-60
2022/04/19 04:22:36;;;;;;;;;;;5.50;99.90;;;;;;5084484;28;19927;-60
2022/04/19 04:25:02;;;;;;;;;;;5.40;99.90;;;;;;5058786;28;19945;-60
2022/04/19 04:27:30;;;;;;;;;;;5.30;99.90;;;;;;5075077;28;20451;-60
2022/04/19 04:29:56;;;;;;;;;;;5.10;99.90;;;;;;5083691;28;19927;-60
2022/04/19 04:32:21;;;;;;;;;;;5.00;99.90;;;;;;5095281;28;19924;-60
2022/04/19 04:34:47;;;;;;;;;;;5.70;99.90;;;;;;5095504;28;19967;-60
2022/04/19 04:37:14;;;;;;;;;;;5.20;99.90;;;;;;5094457;28;19935;-60
2022/04/19 04:39:45;;;;;;;;;;;4.90;99.90;;;;;;5059157;28;19932;-60
2022/04/19 04:42:37;;;;;;;;;;;5.10;99.90;;;;;;5074961;28;19931;-60
2022/04/19 04:45:08;;;;;;;;;;;5.20;99.90;;;;;;5057203;28;20382;-60
2022/04/19 04:50:19;;;;;;;;;;;5.60;99.90;;;;;;5094707;28;19963;-60
2022/04/19 04:52:46;;;;;;;;;;;5.30;99.90;;;;;;5078278;28;20279;-60
2022/04/19 04:55:13;;;;;;;;;;;5.60;99.90;;;;;;5078469;28;19931;-60
2022/04/19 04:57:38;;;;;;;;;;;5.50;99.90;;;;;;5093788;28;20263;-60
2022/04/19 05:00:04;;;;;;;;;;;5.80;99.90;;;;;;5112749;28;19962;-60
2022/04/19 05:02:47;;;;;;;;;;;5.40;99.90;;;;;;5095447;28;20370;-60
2022/04/19 05:05:12;;;;;;;;;;;5.90;99.90;;;;;;5111965;28;19923;-61
2022/04/19 05:07:38;;;;;;;;;;;6.00;99.90;;;;;;5078762;28;19963;-60
2022/04/19 05:10:05;;;;;;;;;;;6.30;99.90;;;;;;5081905;28;19924;-60
2022/04/19 05:12:32;;;;;;;;;;;5.80;99.90;;;;;;5090236;28;19969;-60
2022/04/19 05:14:58;;;;;;;;;;;5.90;99.90;;;;;;5097945;28;19932;-60
2022/04/19 05:17:25;;;;;;;;;;;6.80;99.90;;;;;;5075541;28;19932;-60
2022/04/19 05:19:52;;;;;;;;;;;6.60;99.90;;;;;;5058033;28;19925;-60
2022/04/19 05:22:18;;;;;;;;;;;6.40;99.90;;;;;;5064534;28;20338;-60
2022/04/19 05:24:45;;;;;;;;;;;6.60;99.90;;;;;;5078590;28;19947;-60
2022/04/19 05:27:11;;;;;;;;;;;6.70;99.90;;;;;;5077999;28;19924;-60
2022/04/19 05:29:37;;;;;;;;;;;6.90;99.90;;;;;;5078335;28;20136;-60
2022/04/19 05:32:05;;;;;;;;;;;7.00;99.90;;;;;;5061624;28;20019;-60
2022/04/19 05:34:30;;;;;;;;;;;7.10;99.90;;;;;;5077862;28;20404;-60
2022/04/19 05:36:58;;;;;;;;;;;7.30;99.90;;;;;;5078191;28;19931;-60
2022/04/19 05:39:24;;;;;;;;;;;7.40;99.90;;;;;;5078516;28;19928;-60
2022/04/19 05:41:51;;;;;;;;;;;7.50;99.90;;;;;;5096419;28;20361;-60
2022/04/19 05:44:16;;;;;;;;;;;7.70;99.90;;;;;;5116325;28;19930;-60
2022/04/19 05:46:42;;;;;;;;;;;7.80;99.90;;;;;;5097709;28;19977;-60
2022/04/19 05:49:08;;;;;;;;;;;7.90;99.90;;;;;;5091736;28;19946;-60
2022/04/19 05:51:36;;;;;;;;;;;8.00;99.90;;;;;;5077560;28;20382;-60
2022/04/19 05:54:03;;;;;;;;;;;8.10;99.90;;;;;;5077278;28;20508;-60
2022/04/19 05:56:30;;;;;;;;;;;8.30;99.90;;;;;;5077653;28;19924;-60
2022/04/19 05:58:56;;;;;;;;;;;8.40;99.90;;;;;;5091507;28;20047;-60
2022/04/19 06:01:22;;;;;;;;;;;8.50;99.90;;;;;;5097522;28;19928;-60
2022/04/19 06:06:35;;;;;;;;;;;8.80;99.90;;;;;;5092597;28;19978;-60
2022/04/19 06:09:02;;;;;;;;;;;8.90;99.90;;;;;;5085749;28;19924;-60
2022/04/19 06:11:27;;;;;;;;;;;9.00;99.90;;;;;;5097827;28;20047;-60
2022/04/19 06:13:53;;;;;;;;;;;9.10;99.90;;;;;;5116008;28;19977;-61
2022/04/19 06:16:19;;;;;;;;;;;9.30;99.90;;;;;;5082141;28;19935;-60
2022/04/19 06:18:49;;;;;;;;;;;9.40;99.90;;;;;;5072968;28;19928;-60
2022/04/19 06:21:19;;;;;;;;;;;9.50;99.90;;;;;;5073350;28;20708;-60
2022/04/19 06:23:45;;;;;;;;;;;9.60;99.90;;;;;;5069855;28;20015;-61
2022/04/19 06:26:10;;;;;;;;;;;9.70;99.90;;;;;;5097424;28;20321;-60
2022/04/19 06:28:37;;;;;;;;;;;10.00;99.90;;;;;;5097453;28;19928;-60
2022/04/19 06:31:16;;;;;;;;;;;9.90;99.90;;;;;;5115943;28;20349;-60
2022/04/19 06:33:46;;;;;;;;;;;10.00;99.90;;;;;;5079534;28;20332;-60
2022/04/19 06:36:12;;;;;;;;;;;10.10;99.90;;;;;;5096388;28;19931;-60
2022/04/19 06:38:38;;;;;;;;;;;10.20;99.90;;;;;;5115426;28;20282;-60
2022/04/19 06:41:04;;;;;;;;;;;10.40;99.90;;;;;;5097527;28;19923;-60
2022/04/19 06:43:33;;;;;;;;;;;10.50;99.90;;;;;;5095634;28;19927;-60
2022/04/19 06:46:12;;;;;;;;;;;10.60;99.90;;;;;;5097256;28;19940;-60
2022/04/19 06:48:38;;;;;;;;;;;10.80;99.90;;;;;;5097563;28;19983;-60
2022/04/19 06:51:04;;;;;;;;;;;10.90;99.90;;;;;;5078440;28;19923;-60
2022/04/19 06:53:30;;;;;;;;;;;11.00;99.90;;;;;;5090449;28;20326;-60
2022/04/19 06:56:00;;;;;;;;;;;11.10;99.90;;;;;;5075761;28;19979;-60
2022/04/19 06:58:26;;;;;;;;;;;11.30;99.90;;;;;;5093910;28;19967;-60
2022/04/19 07:00:52;;;;;;;;;;;11.40;99.90;;;;;;5090282;28;19923;-60
2022/04/19 07:03:18;;;;;;;;;;;11.50;99.90;;;;;;5097178;28;19923;-61
2022/04/19 07:06:19;;;;;;;;;;;11.70;99.90;;;;;;5114010;28;20063;-61
2022/04/19 07:08:45;;;;;;;;;;;11.80;99.90;;;;;;5096410;28;19924;-61
2022/04/19 07:11:12;;;;;;;;;;;11.90;99.90;;;;;;5078935;28;20404;-61
2022/04/19 07:13:50;;;;;;;;;;;12.00;99.90;;;;;;5096325;28;20305;-61
2022/04/19 07:16:48;;;;;;;;;;;12.20;99.90;;;;;;5096631;28;19924;-60
2022/04/19 07:19:18;;;;;;;;;;;12.40;99.90;;;;;;5071484;28;19932;-60
2022/04/19 07:27:19;;;;;;;;;;;12.80;99.90;;;;;;5082264;28;19924;-60
2022/04/19 07:29:44;;;;;;;;;;;12.90;99.90;;;;;;5085306;28;19972;-61
2022/04/19 07:32:11;;;;;;;;;;;13.00;99.90;;;;;;5091935;28;19931;-61
2022/04/19 07:34:51;;;;;;;;;;;13.10;99.90;;;;;;5092945;28;19932;-60
2022/04/19 07:37:17;;;;;;;;;;;13.20;99.90;;;;;;5075704;28;19924;-61
2022/04/19 07:39:43;;;;;;;;;;;13.40;99.90;;;;;;5074094;28;19944;-61
2022/04/19 07:42:09;;;;;;;;;;;13.50;99.90;;;;;;5093973;28;19967;-61
2022/04/19 07:44:35;;;;;;;;;;;13.60;99.90;;;;;;5078197;28;19971;-61
2022/04/19 07:47:01;;;;;;;;;;;13.70;99.90;;;;;;5074835;28;19950;-60
2022/04/19 07:49:27;;;;;;;;;;;13.80;99.90;;;;;;5076160;28;19924;-61
2022/04/19 07:51:54;;;;;;;;;;;14.00;99.90;;;;;;5093517;28;19985;-61
2022/04/19 07:54:20;;;;;;;;;;;14.10;99.90;;;;;;5092812;28;19928;-61
2022/04/19 07:56:47;;;;;;;;;;;14.20;99.90;;;;;;5075747;28;19948;-61
2022/04/19 07:59:13;;;;;;;;;;;14.30;99.90;;;;;;5075010;28;20003;-61
2022/04/19 08:01:39;;;;;;;;;;;14.50;99.90;;;;;;5074992;28;20359;-61
2022/04/19 08:04:05;;;;;;;;;;;14.60;99.90;;;;;;5071037;28;19924;-61
2022/04/19 08:06:31;;;;;;;;;;;14.80;99.90;;;;;;5092084;28;20231;-61
2022/04/19 08:08:57;;;;;;;;;;;14.90;99.90;;;;;;5081102;28;19980;-61
2022/04/19 08:11:22;;;;;;;;;;;15.00;99.90;;;;;;5046861;28;19947;-61
2022/04/19 08:13:50;;;;;;;;;;;15.10;99.90;;;;;;5074581;28;19981;-61
2022/04/19 08:16:15;;;;;;;;;;;15.20;99.00;;;;;;5074053;28;20351;-61
2022/04/19 08:18:41;;;;;;;;;;;15.30;98.70;;;;;;5093109;28;20415;-61
2022/04/19 08:21:07;;;;;;;;;;;15.40;98.30;;;;;;5082594;28;19950;-61
2022/04/19 08:23:34;;;;;;;;;;;15.50;97.30;;;;;;5074035;28;19931;-61
2022/04/19 08:26:04;;;;;;;;;;;15.70;97.00;;;;;;5075642;28;19931;-61
2022/04/19 08:28:30;;;;;;;;;;;15.80;96.40;;;;;;5073946;28;20014;-61
2022/04/19 08:30:56;;;;;;;;;;;15.80;96.20;;;;;;5075582;28;20371;-61
2022/04/19 08:33:28;;;;;;;;;;;15.90;96.50;;;;;;5075562;28;19924;-61
2022/04/19 08:35:55;;;;;;;;;;;16.10;96.40;;;;;;5074343;28;19924;-61
2022/04/19 08:38:20;;;;;;;;;;;16.20;96.10;;;;;;5093069;28;20044;-61
2022/04/19 08:40:48;;;;;;;;;;;16.30;95.80;;;;;;5108853;28;19932;-61
2022/04/19 08:43:13;;;;;;;;;;;16.40;95.40;;;;;;5090263;28;19924;-61
2022/04/19 08:45:39;;;;;;;;;;;16.50;95.90;;;;;;5091573;28;19989;-61
2022/04/19 08:48:07;;;;;;;;;;;16.60;95.50;;;;;;5091848;28;19974;-61
2022/04/19 08:50:32;;;;;;;;;;;16.70;95.60;;;;;;5091927;28;20374;-61
2022/04/19 08:58:28;;;;;;;;;;;17.00;90.90;;;;;;5091230;28;19925;-61
2022/04/19 09:00:54;;;;;;;;;;;17.10;90.20;;;;;;5092730;28;20394;-61
2022/04/19 09:03:20;;;;;;;;;;;17.10;90.90;;;;;;5092666;28;19930;-61
2022/04/19 09:05:50;;;;;;;;;;;17.20;89.90;;;;;;5073745;28;19924;-61
2022/04/19 09:08:16;;;;;;;;;;;17.30;88.10;;;;;;5092759;28;19945;-61
2022/04/19 09:10:41;;;;;;;;;;;17.40;88.00;;;;;;5088633;28;19924;-62
2022/04/19 09:13:09;;;;;;;;;;;17.50;85.50;;;;;;5082302;28;19928;-61
2022/04/19 09:15:37;;;;;;;;;;;17.50;84.70;;;;;;5092993;28;20002;-61
2022/04/19 09:18:15;;;;;;;;;;;17.60;82.30;;;;;;5092044;28;19924;-62
2022/04/19 09:20:40;;;;;;;;;;;17.70;82.90;;;;;;5074971;28;19931;-61
2022/04/19 09:23:07;;;;;;;;;;;17.80;82.80;;;;;;5076012;28;20004;-62
2022/04/19 09:25:33;;;;;;;;;;;17.90;81.60;;;;;;5070930;28;19925;-62
2022/04/19 09:27:59;;;;;;;;;;;17.90;80.80;;;;;;5071245;28;19978;-62
2022/04/19 09:30:27;;;;;;;;;;;17.80;81.00;;;;;;5073719;28;20370;-61
2022/04/19 09:33:03;;;;;;;;;;;17.80;78.50;;;;;;5091934;28;20023;-61
2022/04/19 09:35:29;;;;;;;;;;;17.80;79.20;;;;;;5065421;28;19924;-61
2022/04/19 09:37:55;;;;;;;;;;;17.80;80.10;;;;;;5071944;28;19925;-61
2022/04/19 09:40:28;;;;;;;;;;;17.90;78.80;;;;;;5086887;28;19924;-62
2022/04/19 09:42:54;;;;;;;;;;;18.00;77.90;;;;;;5072775;28;19924;-62
2022/04/19 09:45:21;;;;;;;;;;;18.10;80.10;;;;;;5071783;28;19936;-62
2022/04/19 09:47:53;;;;;;;;;;;18.20;80.80;;;;;;5070597;28;19947;-61
2022/04/19 09:50:20;;;;;;;;;;;18.40;79.10;;;;;;5069973;28;19989;-62
2022/04/19 09:52:50;;;;;;;;;;;18.40;77.40;;;;;;5071677;28;19925;-62
2022/04/19 09:55:17;;;;;;;;;;;18.40;77.50;;;;;;5075626;28;19921;-61
2022/04/19 09:57:47;;;;;;;;;;;18.30;75.80;;;;;;5074166;28;20294;-62
2022/04/19 10:00:14;;;;;;;;;;;18.30;75.70;;;;;;5058519;28;20294;-61
2022/04/19 10:08:11;;;;;;;;;;;18.20;73.20;;;;;;5094175;28;19969;-62
2022/04/19 10:10:37;;;;;;;;;;;18.40;76.90;;;;;;5077483;28;19935;-61
2022/04/19 10:13:03;;;;;;;;;;;18.60;77.20;;;;;;5096145;28;19924;-62
2022/04/19 10:15:32;;;;;;;;;;;18.90;76.90;;;;;;5094986;28;19971;-61
2022/04/19 10:17:58;;;;;;;;;;;19.40;76.60;;;;;;5095138;28;19931;-62
2022/04/19 10:20:32;;;;;;;;;;;19.80;75.50;;;;;;5088678;28;19928;-61
2022/04/19 10:23:01;;;;;;;;;;;20.40;70.70;;;;;;5090845;28;19920;-61
2022/04/19 10:25:35;;;;;;;;;;;21.00;68.90;;;;;;5095033;28;19935;-62
2022/04/19 10:28:04;;;;;;;;;;;21.70;65.50;;;;;;5091888;28;19926;-62
2022/04/19 10:30:33;;;;;;;;;;;22.30;60.70;;;;;;5095354;28;19935;-62
2022/04/19 10:33:00;;;;;;;;;;;22.90;58.00;;;;;;5094536;28;20023;-62
2022/04/19 10:35:25;;;;;;;;;;;23.60;58.40;;;;;;5093619;28;19924;-62
2022/04/19 10:38:17;;;;;;;;;;;24.10;54.00;;;;;;5076911;28;20393;-62
2022/04/19 10:40:50;;;;;;;;;;;24.70;54.10;;;;;;5093152;28;21722;-62
2022/04/19 10:43:16;;;;;;;;;;;25.20;52.10;;;;;;5072823;28;19924;-62
2022/04/19 10:45:42;;;;;;;;;;;25.50;50.20;;;;;;5094657;28;19924;-62
2022/04/19 10:48:08;;;;;;;;;;;25.80;48.30;;;;;;5094942;28;20336;-62
2022/04/19 10:50:39;;;;;;;;;;;26.00;47.90;;;;;;5094086;28;19978;-62
2022/04/19 10:53:11;;;;;;;;;;;26.10;45.30;;;;;;5095306;28;20421;-62
2022/04/19 10:55:38;;;;;;;;;;;26.30;45.20;;;;;;5056671;28;19924;-62
2022/04/19 11:00:55;;;;;;;;;;;26.70;43.40;;;;;;5074861;28;19959;-62
2022/04/19 11:03:38;;;;;;;;;;;26.90;44.00;;;;;;5073585;28;19930;-62
2022/04/19 11:06:04;;;;;;;;;;;27.10;43.90;;;;;;5091809;28;19971;-62
2022/04/19 11:08:32;;;;;;;;;;;27.30;43.80;;;;;;5085527;28;19932;-62
2022/04/19 11:10:58;;;;;;;;;;;27.40;43.00;;;;;;5093293;28;20415;-62
2022/04/19 11:13:26;;;;;;;;;;;27.50;42.80;;;;;;5094936;28;19928;-62
2022/04/19 11:15:58;;;;;;;;;;;27.70;42.60;;;;;;5075821;28;19920;-62
2022/04/19 11:18:24;;;;;;;;;;;27.80;42.80;;;;;;5093417;28;19946;-62
2022/04/19 11:20:52;;;;;;;;;;;28.10;42.50;;;;;;5094492;28;19967;-62
2022/04/19 11:23:20;;;;;;;;;;;28.20;41.00;;;;;;5055429;28;20150;-62
2022/04/19 11:25:46;;;;;;;;;;;28.20;40.70;;;;;;5103117;28;19924;-62
2022/04/19 11:28:12;;;;;;;;;;;28.20;40.80;;;;;;5094487;28;19931;-63
2022/04/19 11:30:42;;;;;;;;;;;28.30;40.80;;;;;;5093992;28;19992;-62
2022/04/19 11:33:08;;;;;;;;;;;28.40;40.30;;;;;;5092511;28;19924;-62
2022/04/19 11:35:34;;;;;;;;;;;28.60;40.20;;;;;;5093487;28;19924;-63
2022/04/19 11:38:09;;;;;;;;;;;28.90;40.80;;;;;;5093289;28;19967;-62
2022/04/19 11:49:01;;;;;;;;;;;29.80;37.20;;;;;;5089868;28;20289;-63
2022/04/19 11:51:27;;;;;;;;;;;29.80;37.40;;;;;;5093023;28;20020;-62
2022/04/19 11:53:53;;;;;;;;;;;30.00;38.20;;;;;;5092718;28;20018;-63
2022/04/19 11:56:18;;;;;;;;;;;30.20;37.30;;;;;;5092880;28;19931;-63
2022/04/19 11:58:49;;;;;;;;;;;30.50;37.80;;;;;;5093602;28;19930;-63
2022/04/19 12:01:14;;;;;;;;;;;30.70;37.80;;;;;;5083144;28;19935;-62
2022/04/19 12:03:40;;;;;;;;;;;30.90;37.10;;;;;;5089977;28;19928;-63
2022/04/19 12:06:08;;;;;;;;;;;31.00;36.30;;;;;;5084351;28;19920;-63
2022/04/19 12:08:37;;;;;;;;;;;31.10;36.80;;;;;;5092695;28;19925;-63
2022/04/19 12:11:05;;;;;;;;;;;31.30;36.60;;;;;;5092926;28;20045;-63
2022/04/19 12:13:31;;;;;;;;;;;31.40;36.70;;;;;;5112818;28;20326;-63
2022/04/19 12:15:57;;;;;;;;;;;31.60;37.30;;;;;;5113371;28;19932;-63
2022/04/19 12:18:28;;;;;;;;;;;31.80;36.50;;;;;;5102208;28;20069;-62
2022/04/19 12:20:54;;;;;;;;;;;32.00;36.20;;;;;;5092500;28;20314;-63
2022/04/19 12:23:20;;;;;;;;;;;32.10;36.00;;;;;;5086158;28;19976;-63
2022/04/19 12:26:03;;;;;;;;;;;32.20;35.70;;;;;;5092677;28;20263;-63
2022/04/19 12:28:36;;;;;;;;;;;32.30;35.90;;;;;;5108601;28;19923;-63
2022/04/19 12:31:01;;;;;;;;;;;32.50;35.10;;;;;;5113204;28;20285;-63
2022/04/19 12:33:27;;;;;;;;;;;32.30;34.40;;;;;;5076034;28;19920;-63
2022/04/19 12:35:53;;;;;;;;;;;32.20;34.40;;;;;;5081076;28;19931;-63
2022/04/19 12:38:18;;;;;;;;;;;32.20;34.90;;;;;;5113423;28;19931;-63
2022/04/19 12:40:44;;;;;;;;;;;32.20;35.00;;;;;;5113426;28;20018;-63
2022/04/19 12:43:11;;;;;;;;;;;32.30;35.60;;;;;;5112917;28;19927;-63
2022/04/19 12:45:37;;;;;;;;;;;32.20;33.80;;;;;;5112325;28;19924;-66
2022/04/19 12:48:04;;;;;;;;;;;31.80;33.80;;;;;;5092387;28;19931;-63
2022/04/19 12:50:29;;;;;;;;;;;31.40;35.30;;;;;;5092398;28;20366;-63
2022/04/19 12:52:55;;;;;;;;;;;31.60;34.90;;;;;;5092898;28;19985;-63
2022/04/19 12:55:28;;;;;;;;;;;31.80;35.60;;;;;;5072006;28;19931;-63
2022/04/19 12:58:07;;;;;;;;;;;31.80;34.40;;;;;;5054160;28;20444;-63
2022/04/19 13:00:33;;;;;;;;;;;31.50;34.60;;;;;;5072805;28;20377;-63
2022/04/19 13:02:59;;;;;;;;;;;31.00;34.60;;;;;;5090597;28;19923;-63
2022/04/19 13:12:16;;;;;;;;;;;30.80;35.00;;;;;;5095332;28;20306;-63
2022/04/19 13:13:38;;;;;;;;;;;30.90;35.90;;;;;;5091630;28;19931;-64
2022/04/19 13:16:04;;;;;;;;;;;31.10;36.30;;;;;;5092573;28;19924;-63
2022/04/19 13:18:30;;;;;;;;;;;31.20;35.90;;;;;;5092172;28;20018;-63
2022/04/19 13:20:55;;;;;;;;;;;31.20;35.80;;;;;;5085633;28;19930;-63
2022/04/19 13:23:21;;;;;;;;;;;30.90;35.50;;;;;;5103123;28;20366;-63
2022/04/19 13:25:47;;;;;;;;;;;30.60;35.80;;;;;;5112421;28;19930;-63
2022/04/19 13:28:12;;;;;;;;;;;30.40;36.40;;;;;;5113551;28;19977;-63
2022/04/19 13:30:40;;;;;;;;;;;30.40;36.00;;;;;;5096239;28;19932;-64
2022/04/19 13:33:05;;;;;;;;;;;30.30;36.50;;;;;;5094784;28;19956;-63
2022/04/19 13:35:31;;;;;;;;;;;30.10;36.40;;;;;;5095370;28;20414;-63
2022/04/19 13:38:26;;;;;;;;;;;29.60;35.90;;;;;;5100366;28;20400;-63
2022/04/19 13:40:52;;;;;;;;;;;28.80;35.90;;;;;;5116853;28;19924;-64
2022/04/19 13:43:18;;;;;;;;;;;28.00;36.50;;;;;;5117011;28;19974;-63
2022/04/19 13:45:43;;;;;;;;;;;27.60;38.30;;;;;;5114094;28;19924;-63
2022/04/19 13:48:09;;;;;;;;;;;27.30;37.90;;;;;;5113213;28;20446;-63
2022/04/19 13:50:35;;;;;;;;;;;27.30;38.50;;;;;;5098375;28;20003;-63
2022/04/19 13:53:01;;;;;;;;;;;27.50;38.40;;;;;;5115425;28;19927;-63
2022/04/19 13:55:28;;;;;;;;;;;28.00;38.60;;;;;;5100273;28;19927;-63
2022/04/19 13:57:54;;;;;;;;;;;28.30;38.40;;;;;;5116738;28;19931;-63
2022/04/19 14:00:20;;;;;;;;;;;28.70;37.90;;;;;;5115379;28;19935;-64
2022/04/19 14:02:46;;;;;;;;;;;28.80;36.90;;;;;;5116520;28;19924;-63
2022/04/19 14:05:11;;;;;;;;;;;28.80;37.00;;;;;;5115938;28;19977;-63
2022/04/19 14:07:38;;;;;;;;;;;29.00;37.00;;;;;;5115167;28;20019;-64
2022/04/19 14:10:06;;;;;;;;;;;29.10;36.90;;;;;;5098988;28;20011;-64
2022/04/19 14:12:32;;;;;;;;;;;29.40;36.10;;;;;;5092707;28;19930;-63
2022/04/19 14:14:57;;;;;;;;;;;29.80;36.00;;;;;;5096123;28;19923;-63
2022/04/19 14:17:23;;;;;;;;;;;30.20;35.70;;;;;;5116083;28;20456;-64
2022/04/19 14:19:51;;;;;;;;;;;30.50;35.00;;;;;;5116102;28;19930;-64
2022/04/19 14:22:17;;;;;;;;;;;30.30;34.30;;;;;;5096000;28;19927;-64
2022/04/19 14:24:43;;;;;;;;;;;30.20;35.50;;;;;;5098372;28;19924;-64
2022/04/19 14:27:08;;;;;;;;;;;30.50;34.80;;;;;;5094548;28;19924;-64
2022/04/19 14:35:07;;;;;;;;;;;30.50;34.80;;;;;;5102731;28;19923;-64
2022/04/19 14:37:34;;;;;;;;;;;30.60;34.90;;;;;;5115032;28;19924;-63
2022/04/19 14:40:00;;;;;;;;;;;30.50;34.40;;;;;;5113905;28;19924;-64
2022/04/19 14:42:26;;;;;;;;;;;30.20;34.10;;;;;;5114969;28;20354;-63
2022/04/19 14:44:52;;;;;;;;;;;30.30;35.50;;;;;;5115290;28;19970;-64
2022/04/19 14:47:17;;;;;;;;;;;30.70;35.20;;;;;;5101649;28;19968;-63
2022/04/19 14:49:43;;;;;;;;;;;31.00;34.20;;;;;;5107595;28;20010;-63
2022/04/19 14:52:16;;;;;;;;;;;31.30;34.80;;;;;;5096851;28;19924;-63
2022/04/19 14:54:42;;;;;;;;;;;31.50;34.10;;;;;;5084230;28;19927;-63
2022/04/19 14:57:08;;;;;;;;;;;31.70;34.60;;;;;;5080065;28;20018;-64
2022/04/19 14:59:34;;;;;;;;;;;31.80;34.20;;;;;;5115110;28;20003;-64
2022/04/19 15:01:59;;;;;;;;;;;32.00;34.40;;;;;;5115525;28;19935;-64
2022/04/19 15:04:25;;;;;;;;;;;32.00;33.40;;;;;;5110890;28;20019;-63
2022/04/19 15:06:51;;;;;;;;;;;32.00;34.00;;;;;;5104904;28;19928;-64
2022/04/19 15:09:17;;;;;;;;;;;32.00;34.00;;;;;;5097929;28;19940;-64
2022/04/19 15:11:44;;;;;;;;;;;32.00;33.20;;;;;;5070153;28;19924;-63
2022/04/19 15:14:09;;;;;;;;;;;32.20;33.80;;;;;;5074010;28;19924;-63
2022/04/19 15:16:35;;;;;;;;;;;32.20;34.30;;;;;;5060575;28;20048;-63
2022/04/19 15:19:00;;;;;;;;;;;32.40;33.70;;;;;;5054427;28;20507;-63
2022/04/19 15:21:26;;;;;;;;;;;32.30;34.10;;;;;;5054164;28;20003;-64